Time;durP1;ratioP1;P1;durP2;ratioP2;P2;SDS_P1;SDS_P2;PMS_P1;PMS_P2;Temp;Humidity;BMP_temperature;BMP_pressure;BME280_temperature;BME280_humidity;BME280_pressure;Samples;Min_cycle;Max_cycle;Signal;HPM_P1;HPM_P2
2023/02/14 00:01:49;;;;;;;27.20;20.10;;;;;;;;;;5013324;28;20541;-69
2023/02/14 00:04:16;;;;;;;30.20;20.90;;;;;;;;;;5015154;28;21008;-70
2023/02/14 00:06:43;;;;;;;29.83;20.00;;;;;;;;;;5013430;28;20403;-69
2023/02/14 00:09:12;;;;;;;29.40;19.50;;;;;;;;;;5014504;28;20458;-70
2023/02/14 00:11:39;;;;;;;27.30;18.17;;;;;;;;;;5014677;28;20450;-70
2023/02/14 00:16:50;;;;;;;27.67;19.70;;;;;;;;;;5014851;28;20931;-70
2023/02/14 00:19:18;;;;;;;30.60;20.20;;;;;;;;;;5014491;28;20477;-69
2023/02/14 00:21:44;;;;;;;22.63;17.23;;;;;;;;;;5014135;28;20493;-69
2023/02/14 00:24:12;;;;;;;26.40;19.00;;;;;;;;;;5013344;28;20406;-68
2023/02/14 00:26:39;;;;;;;26.23;18.33;;;;;;;;;;5014206;28;20399;-69
2023/02/14 00:29:06;;;;;;;24.67;18.83;;;;;;;;;;5046010;23;20508;-70
2023/02/14 00:31:32;;;;;;;26.20;18.30;;;;;;;;;;5035017;28;20410;-71
2023/02/14 00:33:58;;;;;;;27.10;18.90;;;;;;;;;;5034386;28;20386;-70
2023/02/14 00:36:24;;;;;;;30.00;19.13;;;;;;;;;;5032725;28;20410;-71
2023/02/14 00:38:50;;;;;;;26.40;18.50;;;;;;;;;;5049438;28;20932;-71
2023/02/14 00:41:19;;;;;;;25.10;18.03;;;;;;;;;;5049460;28;20467;-70
2023/02/14 00:43:46;;;;;;;27.43;19.70;;;;;;;;;;5049826;28;20402;-71
2023/02/14 00:46:12;;;;;;;26.90;19.07;;;;;;;;;;5034309;28;20398;-71
2023/02/14 00:48:38;;;;;;;24.80;17.50;;;;;;;;;;5034404;28;20842;-71
2023/02/14 00:51:04;;;;;;;25.50;17.13;;;;;;;;;;5034006;28;20403;-72
2023/02/14 00:53:30;;;;;;;25.07;19.27;;;;;;;;;;5033942;28;20416;-72
2023/02/14 00:55:56;;;;;;;26.33;18.23;;;;;;;;;;5049065;28;20418;-71
2023/02/14 00:58:22;;;;;;;23.33;16.70;;;;;;;;;;5033520;28;20418;-70
2023/02/14 01:00:48;;;;;;;26.63;17.87;;;;;;;;;;5033783;28;20935;-70
2023/02/14 01:03:14;;;;;;;30.10;20.33;;;;;;;;;;5034232;28;20398;-71
2023/02/14 01:05:40;;;;;;;24.53;18.27;;;;;;;;;;5033443;28;20409;-71
2023/02/14 01:08:06;;;;;;;26.47;19.50;;;;;;;;;;5033415;28;20457;-72
2023/02/14 01:10:32;;;;;;;27.13;19.60;;;;;;;;;;5034029;28;20493;-72
2023/02/14 01:12:58;;;;;;;30.90;20.63;;;;;;;;;;5048839;28;20774;-71
2023/02/14 01:15:24;;;;;;;28.27;19.50;;;2.10;99.90;;;;;;5049114;28;20421;-72
2023/02/14 01:17:49;;;;;;;25.67;18.77;;;2.00;99.90;;;;;;5033346;28;20424;-71
2023/02/14 01:20:15;;;;;;;30.00;19.50;;;2.00;99.90;;;;;;5017333;28;20278;-72
2023/02/14 01:22:41;;;;;;;27.00;19.40;;;2.00;99.90;;;;;;5014656;28;20172;-71
2023/02/14 01:25:07;;;;;;;25.27;18.80;;;2.00;99.90;;;;;;5030327;28;20203;-71
2023/02/14 01:27:32;;;;;;;27.70;19.83;;;2.00;99.90;;;;;;5015339;28;20494;-72
2023/02/14 01:29:58;;;;;;;25.87;18.10;;;2.00;99.90;;;;;;5013808;28;20286;-71
2023/02/14 01:32:23;;;;;;;26.30;19.10;;;2.00;99.90;;;;;;5014282;28;20172;-71
2023/02/14 01:34:49;;;;;;;30.63;21.80;;;1.90;99.90;;;;;;5012289;28;20203;-69
2023/02/14 01:37:14;;;;;;;29.17;18.83;;;1.90;99.90;;;;;;5014502;28;20175;-72
2023/02/14 01:39:40;;;;;;;25.10;18.37;;;1.90;99.90;;;;;;5028616;28;20279;-72
2023/02/14 01:42:06;;;;;;;31.83;19.83;;;2.00;99.90;;;;;;5028526;28;20172;-72
2023/02/14 01:44:31;;;;;;;25.47;17.30;;;1.90;99.90;;;;;;5013362;28;20643;-71
2023/02/14 01:46:59;;;;;;;26.63;18.40;;;1.90;99.90;;;;;;5013483;28;20171;-71
2023/02/14 01:49:36;;;;;;;27.17;19.53;;;1.90;99.90;;;;;;5013145;28;20210;-71
2023/02/14 01:52:09;;;;;;;28.00;19.60;;;1.90;99.90;;;;;;5028405;28;20418;-72
2023/02/14 01:54:40;;;;;;;28.33;19.73;;;1.80;99.90;;;;;;5013485;28;20456;-71
2023/02/14 01:57:08;;;;;;;20.83;15.70;;;1.70;99.90;;;;;;5013720;28;20389;-71
2023/02/14 01:59:37;;;;;;;27.00;18.80;;;1.70;99.90;;;;;;5013306;28;20426;-70
2023/02/14 02:02:04;;;;;;;26.93;19.87;;;1.80;99.90;;;;;;5013269;28;20403;-71
2023/02/14 02:04:34;;;;;;;24.50;18.50;;;1.90;99.90;;;;;;5015541;28;20418;-71
2023/02/14 02:07:04;;;;;;;25.70;20.07;;;1.90;99.90;;;;;;5032849;28;20896;-71
2023/02/14 02:09:57;;;;;;;27.10;19.60;;;1.80;99.90;;;;;;5031495;28;20430;-72
2023/02/14 02:12:23;;;;;;;24.47;19.17;;;1.90;99.90;;;;;;5033347;28;20393;-71
2023/02/14 02:14:51;;;;;;;25.83;18.90;;;1.80;99.90;;;;;;5033147;28;20398;-71
2023/02/14 02:17:47;;;;;;;24.57;17.73;;;1.80;99.90;;;;;;5031417;28;20406;-71
2023/02/14 02:20:19;;;;;;;22.13;16.00;;;1.70;99.90;;;;;;5032208;28;20414;-71
2023/02/14 02:22:53;;;;;;;31.70;20.60;;;1.70;99.90;;;;;;5033237;28;20379;-71
2023/02/14 02:25:40;;;;;;;25.83;16.70;;;1.80;99.90;;;;;;5033131;28;20492;-71
2023/02/14 02:28:33;;;;;;;27.20;19.00;;;1.80;99.90;;;;;;5047714;28;20456;-72
2023/02/14 02:31:20;;;;;;;26.33;18.57;;;1.90;99.90;;;;;;5034964;28;20409;-71
2023/02/14 02:34:04;;;;;;;29.10;20.13;;;1.80;99.90;;;;;;5051649;28;20421;-71
2023/02/14 02:36:48;;;;;;;27.73;20.33;;;1.80;99.90;;;;;;5050522;28;20418;-71
2023/02/14 02:39:41;;;;;;;27.60;20.00;;;1.80;99.90;;;;;;5036464;28;20413;-71
2023/02/14 02:42:40;;;;;;;26.60;19.13;;;1.80;99.90;;;;;;5036814;28;20386;-72
2023/02/14 02:45:23;;;;;;;27.83;19.40;;;1.80;99.90;;;;;;5036045;28;20481;-71
2023/02/14 02:48:14;;;;;;;26.20;19.03;;;1.90;99.90;;;;;;5036232;28;20445;-71
2023/02/14 02:54:06;;;;;;;26.17;18.13;;;1.80;99.90;;;;;;5036653;28;20388;-71
2023/02/14 02:56:48;;;;;;;24.00;16.40;;;1.80;99.90;;;;;;5033595;28;20423;-72
2023/02/14 02:59:28;;;;;;;25.93;18.80;;;1.70;99.90;;;;;;5035900;28;20430;-71
2023/02/14 03:02:05;;;;;;;25.80;19.23;;;1.70;99.90;;;;;;5034627;28;20405;-71
2023/02/14 03:04:53;;;;;;;28.93;19.90;;;1.70;99.90;;;;;;5051341;28;20828;-71
2023/02/14 03:07:33;;;;;;;25.77;19.07;;;1.60;99.90;;;;;;5035887;28;20398;-72
2023/02/14 03:10:07;;;;;;;23.57;17.67;;;1.70;99.90;;;;;;5044667;28;20434;-72
2023/02/14 03:12:33;;;;;;;29.60;21.67;;;1.70;99.90;;;;;;5014824;28;20409;-71
2023/02/14 03:15:21;;;;;;;27.37;19.20;;;1.40;99.90;;;;;;5015816;28;20930;-71
2023/02/14 03:21:30;;;;;;;27.83;20.03;;;1.70;99.90;;;;;;5015836;28;20517;-71
2023/02/14 03:24:07;;;;;;;31.07;21.13;;;1.70;99.90;;;;;;5006597;28;20459;-71
2023/02/14 03:26:32;;;;;;;31.50;20.60;;;1.60;99.90;;;;;;5018118;28;20886;-69
2023/02/14 03:29:40;;;;;;;33.37;21.97;;;1.60;99.90;;;;;;5030113;28;20478;-71
2023/02/14 03:32:10;;;;;;;30.17;20.17;;;1.60;99.90;;;;;;5002688;28;20188;-71
2023/02/14 03:34:59;;;;;;;32.43;23.07;;;1.60;99.90;;;;;;5017626;28;20839;-71
2023/02/14 03:37:53;;;;;;;26.33;18.70;;;1.50;99.90;;;;;;5035059;28;20460;-71
2023/02/14 03:40:26;;;;;;;30.73;22.07;;;1.60;99.90;;;;;;5035538;28;20382;-71
2023/02/14 03:43:07;;;;;;;28.57;19.77;;;1.50;99.90;;;;;;5033623;28;20398;-71
2023/02/14 03:45:37;;;;;;;28.40;20.13;;;1.60;99.90;;;;;;5050578;28;20486;-71
2023/02/14 03:48:11;;;;;;;33.50;21.83;;;1.70;99.90;;;;;;5035036;28;20442;-71
2023/02/14 03:50:39;;;;;;;29.17;20.00;;;1.60;99.90;;;;;;5034811;28;20418;-71
2023/02/14 03:53:08;;;;;;;31.93;20.53;;;1.60;99.90;;;;;;5034862;28;20398;-71
2023/02/14 03:55:48;;;;;;;27.73;20.77;;;1.70;99.90;;;;;;5034531;28;20416;-71
2023/02/14 03:58:31;;;;;;;25.80;18.70;;;1.60;99.90;;;;;;5034672;28;20433;-71
2023/02/14 04:01:04;;;;;;;32.30;20.60;;;1.60;99.90;;;;;;5033853;28;20457;-71
2023/02/14 04:03:32;;;;;;;29.03;20.80;;;1.70;99.90;;;;;;5034843;28;20885;-71
2023/02/14 04:05:57;;;;;;;29.27;21.30;;;1.60;99.90;;;;;;5035177;28;20507;-71
2023/02/14 04:08:26;;;;;;;30.60;20.93;;;1.70;99.90;;;;;;5034894;28;21028;-71
2023/02/14 04:10:53;;;;;;;28.37;20.57;;;1.70;99.90;;;;;;5035074;28;20167;-71
2023/02/14 04:13:19;;;;;;;26.13;19.63;;;1.70;99.90;;;;;;5034542;28;20401;-71
2023/02/14 04:15:45;;;;;;;33.73;22.80;;;1.60;99.90;;;;;;5034187;28;20418;-70
2023/02/14 04:20:55;;;;;;;29.00;18.87;;;1.70;99.90;;;;;;5034812;28;20651;-71
2023/02/14 04:23:20;;;;;;;27.50;18.30;;;1.70;99.90;;;;;;5034336;28;20414;-71
2023/02/14 04:25:46;;;;;;;31.97;20.90;;;1.70;99.90;;;;;;5034258;28;20258;-71
2023/02/14 04:28:12;;;;;;;28.33;19.80;;;1.70;99.90;;;;;;5049299;28;20195;-71
2023/02/14 04:30:38;;;;;;;33.80;22.90;;;1.70;99.90;;;;;;5048971;28;20627;-71
2023/02/14 04:33:03;;;;;;;32.70;20.50;;;1.70;99.90;;;;;;5033823;28;20409;-70
2023/02/14 04:35:29;;;;;;;28.47;19.67;;;1.70;99.90;;;;;;5033916;28;20167;-71
2023/02/14 04:37:55;;;;;;;36.80;23.53;;;1.60;99.90;;;;;;5048917;28;20230;-69
2023/02/14 04:40:20;;;;;;;31.77;22.57;;;1.50;99.90;;;;;;5033887;28;20206;-70
2023/02/14 04:42:46;;;;;;;24.97;18.03;;;1.50;99.90;;;;;;5033846;28;20231;-70
2023/02/14 04:45:12;;;;;;;27.90;19.60;;;1.50;99.90;;;;;;5033904;28;20572;-71
2023/02/14 04:47:38;;;;;;;28.10;21.60;;;1.60;99.90;;;;;;5033639;28;20199;-71
2023/02/14 04:50:04;;;;;;;28.50;19.03;;;1.60;99.90;;;;;;5049173;28;20815;-71
2023/02/14 04:52:29;;;;;;;34.07;22.97;;;1.50;99.90;;;;;;5048738;28;20174;-72
2023/02/14 04:54:55;;;;;;;33.43;22.60;;;1.40;99.90;;;;;;5033950;28;20476;-71
2023/02/14 04:57:21;;;;;;;36.70;23.40;;;1.40;99.90;;;;;;5049023;28;20237;-71
2023/02/14 04:59:46;;;;;;;30.93;20.97;;;1.30;99.90;;;;;;5031140;28;20210;-72
2023/02/14 05:02:12;;;;;;;27.73;20.47;;;1.40;99.90;;;;;;5013428;28;20228;-71
2023/02/14 05:04:37;;;;;;;26.80;19.00;;;1.40;99.90;;;;;;5014858;28;20172;-72
2023/02/14 05:07:03;;;;;;;33.60;21.67;;;1.40;99.90;;;;;;5033457;28;20175;-71
2023/02/14 05:09:29;;;;;;;40.70;25.07;;;1.40;99.90;;;;;;5033296;28;20210;-72
2023/02/14 05:11:54;;;;;;;34.23;24.00;;;1.50;99.90;;;;;;5033900;28;20782;-72
2023/02/14 05:14:20;;;;;;;31.07;21.70;;;1.50;99.90;;;;;;5034853;28;20194;-72
2023/02/14 05:16:45;;;;;;;33.37;23.07;;;1.40;99.90;;;;;;5035178;28;20172;-71
2023/02/14 05:19:11;;;;;;;33.97;23.10;;;1.40;99.90;;;;;;5034576;28;20191;-71
2023/02/14 05:21:37;;;;;;;34.10;21.57;;;1.40;99.90;;;;;;5052169;28;20175;-73
2023/02/14 05:24:03;;;;;;;33.80;22.30;;;1.40;99.90;;;;;;5034825;28;20174;-71
2023/02/14 05:26:29;;;;;;;32.60;20.90;;;1.50;99.90;;;;;;5049904;28;20976;-72
2023/02/14 05:28:55;;;;;;;32.53;22.30;;;1.40;99.90;;;;;;5033794;28;20556;-71
2023/02/14 05:31:21;;;;;;;32.90;23.70;;;1.50;99.90;;;;;;5031186;28;20210;-72
2023/02/14 05:33:47;;;;;;;33.20;21.30;;;1.50;99.90;;;;;;5013663;28;20886;-71
2023/02/14 05:36:13;;;;;;;29.90;21.13;;;1.40;99.90;;;;;;5027702;28;20421;-72
2023/02/14 05:38:38;;;;;;;30.43;21.80;;;1.50;99.90;;;;;;5034635;28;20430;-71
2023/02/14 05:41:04;;;;;;;29.73;21.00;;;1.50;99.90;;;;;;5034199;28;20626;-72
2023/02/14 05:43:30;;;;;;;30.93;21.73;;;1.50;99.90;;;;;;5034261;28;20175;-72
2023/02/14 05:45:56;;;;;;;32.70;22.07;;;1.50;99.90;;;;;;5049640;28;20501;-72
2023/02/14 05:48:22;;;;;;;32.87;21.53;;;1.50;99.90;;;;;;5050342;28;20207;-72
2023/02/14 05:50:48;;;;;;;30.63;22.20;;;1.30;99.90;;;;;;5035440;28;20406;-72
2023/02/14 05:53:14;;;;;;;28.30;19.53;;;1.30;99.90;;;;;;5033550;28;20532;-72
2023/02/14 05:55:40;;;;;;;38.67;25.70;;;1.20;99.90;;;;;;5048281;28;20410;-71
2023/02/14 05:58:06;;;;;;;24.83;18.73;;;1.20;99.90;;;;;;5033282;28;20549;-72
2023/02/14 06:00:32;;;;;;;26.50;19.23;;;1.30;99.90;;;;;;5048024;28;20410;-70
2023/02/14 06:02:57;;;;;;;30.23;19.73;;;1.30;99.90;;;;;;5032614;28;20410;-70
2023/02/14 06:05:23;;;;;;;29.70;22.03;;;1.30;99.90;;;;;;5033923;28;20175;-70
2023/02/14 06:07:49;;;;;;;33.03;21.07;;;1.30;99.90;;;;;;5036938;28;20278;-70
2023/02/14 06:10:19;;;;;;;30.20;19.53;;;1.40;99.90;;;;;;5036779;28;20187;-71
2023/02/14 06:12:48;;;;;;;33.77;22.83;;;1.50;99.90;;;;;;5036943;28;20406;-70
2023/02/14 06:15:13;;;;;;;33.30;20.57;;;1.50;99.90;;;;;;5036450;28;20420;-71
2023/02/14 06:17:39;;;;;;;32.33;22.03;;;1.40;99.90;;;;;;5051740;28;20409;-71
2023/02/14 06:20:06;;;;;;;28.87;20.90;;;1.40;99.90;;;;;;5051987;28;20288;-72
2023/02/14 06:22:31;;;;;;;28.43;20.23;;;1.40;99.90;;;;;;5051912;28;20178;-71
2023/02/14 06:24:57;;;;;;;34.97;23.20;;;1.40;99.90;;;;;;5036687;28;20779;-70
2023/02/14 06:27:22;;;;;;;32.37;22.33;;;1.50;99.90;;;;;;5051772;28;20209;-70
2023/02/14 06:29:48;;;;;;;36.63;22.67;;;1.50;99.90;;;;;;5056392;23;20584;-68
2023/02/14 06:32:14;;;;;;;30.37;21.57;;;1.50;99.90;;;;;;5051277;28;20231;-67
2023/02/14 06:34:39;;;;;;;35.60;23.50;;;1.40;99.90;;;;;;5035655;28;20285;-68
2023/02/14 06:37:06;;;;;;;30.70;22.20;;;1.40;99.90;;;;;;5035514;28;20163;-68
2023/02/14 06:39:31;;;;;;;27.57;20.20;;;1.40;99.90;;;;;;5035568;28;20190;-68
2023/02/14 06:41:57;;;;;;;27.90;19.50;;;1.50;99.90;;;;;;5026018;28;20802;-68
2023/02/14 06:44:22;;;;;;;31.03;21.90;;;1.40;99.90;;;;;;5015567;28;20180;-69
2023/02/14 06:46:48;;;;;;;33.23;21.30;;;1.40;99.90;;;;;;5015963;28;20172;-69
2023/02/14 06:49:13;;;;;;;37.23;24.00;;;1.40;99.90;;;;;;5015902;28;20207;-69
2023/02/14 06:51:39;;;;;;;32.97;22.80;;;1.40;99.90;;;;;;5015802;28;20199;-69
2023/02/14 06:54:05;;;;;;;29.83;21.50;;;1.40;99.90;;;;;;5015570;28;20176;-68
2023/02/14 06:56:30;;;;;;;30.27;20.63;;;1.40;99.90;;;;;;5015721;28;20276;-69
2023/02/14 06:58:56;;;;;;;33.20;23.10;;;1.40;99.90;;;;;;5018111;28;20262;-69
2023/02/14 07:01:21;;;;;;;35.27;24.03;;;1.40;99.90;;;;;;5033494;28;20178;-69
2023/02/14 07:03:47;;;;;;;31.33;21.00;;;1.40;99.90;;;;;;5034854;28;20171;-69
2023/02/14 07:06:12;;;;;;;33.20;22.80;;;1.40;99.90;;;;;;5016198;28;20204;-69
2023/02/14 07:08:38;;;;;;;36.97;24.07;;;1.30;99.90;;;;;;5015317;28;20202;-68
2023/02/14 07:11:04;;;;;;;38.03;23.67;;;1.40;99.90;;;;;;5015062;28;20249;-68
2023/02/14 07:13:29;;;;;;;33.00;22.23;;;1.40;99.90;;;;;;5015507;28;20203;-69
2023/02/14 07:15:55;;;;;;;39.00;24.60;;;1.50;99.90;;;;;;5013883;28;20191;-68
2023/02/14 07:18:21;;;;;;;33.47;23.27;;;1.50;99.90;;;;;;5015090;28;20651;-69
2023/02/14 07:20:46;;;;;;;32.20;20.50;;;1.40;99.90;;;;;;5013604;28;20447;-69
2023/02/14 07:23:12;;;;;;;36.37;24.00;;;1.40;99.90;;;;;;5015030;28;20221;-68
2023/02/14 07:25:37;;;;;;;28.83;21.57;;;1.40;99.90;;;;;;5015254;28;20180;-69
2023/02/14 07:28:03;;;;;;;35.73;24.87;;;1.40;99.90;;;;;;5015100;28;20683;-69
2023/02/14 07:30:29;;;;;;;37.60;24.63;;;1.50;99.90;;;;;;5029597;28;20233;-69
2023/02/14 07:32:56;;;;;;;35.77;24.67;;;1.50;99.90;;;;;;5034685;28;20656;-69
2023/02/14 07:35:22;;;;;;;34.90;23.80;;;1.50;99.90;;;;;;5032791;28;20413;-70
2023/02/14 07:37:49;;;;;;;36.30;24.37;;;1.50;99.90;;;;;;5016890;28;20415;-69
2023/02/14 07:40:15;;;;;;;36.53;24.80;;;1.50;99.90;;;;;;5014784;28;20191;-69
2023/02/14 07:42:41;;;;;;;33.27;22.53;;;1.50;99.90;;;;;;5015151;28;20499;-69
2023/02/14 07:45:07;;;;;;;30.57;20.77;;;1.60;99.90;;;;;;5014081;28;20180;-68
2023/02/14 07:47:33;;;;;;;33.27;20.77;;;1.70;99.90;;;;;;5014840;28;20414;-69
2023/02/14 07:49:58;;;;;;;37.07;24.00;;;1.80;99.90;;;;;;5013211;28;20845;-69
2023/02/14 07:52:24;;;;;;;36.70;24.50;;;1.90;99.90;;;;;;5014430;28;20571;-69
2023/02/14 07:54:49;;;;;;;31.53;21.93;;;1.90;99.90;;;;;;5014038;28;20175;-69
2023/02/14 07:57:15;;;;;;;27.10;20.43;;;2.00;99.90;;;;;;5014335;28;20251;-69
2023/02/14 07:59:40;;;;;;;30.93;23.23;;;2.10;99.90;;;;;;5022399;28;20558;-69
2023/02/14 08:02:06;;;;;;;30.13;20.40;;;2.30;99.90;;;;;;5033982;28;20626;-69
2023/02/14 08:04:31;;;;;;;30.20;20.90;;;2.50;99.90;;;;;;5032606;28;20467;-69
2023/02/14 08:06:57;;;;;;;31.10;23.47;;;2.60;99.90;;;;;;5034145;28;20171;-70
2023/02/14 08:09:26;;;;;;;32.80;23.07;;;2.80;99.90;;;;;;5033892;28;20705;-70
2023/02/14 08:14:37;;;;;;;27.90;20.13;;;3.00;99.90;;;;;;5033967;28;20382;-69
2023/02/14 08:17:03;;;;;;;34.60;23.60;;;3.10;99.90;;;;;;5033827;28;20417;-70
2023/02/14 08:19:29;;;;;;;34.43;24.10;;;3.10;99.90;;;;;;5033876;28;20190;-70
2023/02/14 08:21:54;;;;;;;29.07;20.47;;;3.20;99.90;;;;;;5033769;28;20182;-70
2023/02/14 08:24:20;;;;;;;27.37;21.77;;;3.20;99.90;;;;;;5033858;28;20449;-70
2023/02/14 08:26:46;;;;;;;29.73;21.67;;;3.30;99.90;;;;;;5033924;28;20634;-70
2023/02/14 08:29:11;;;;;;;31.63;21.87;;;3.40;99.90;;;;;;5032050;28;20288;-69
2023/02/14 08:31:37;;;;;;;33.13;23.70;;;3.50;99.90;;;;;;5033463;28;20164;-69
2023/02/14 08:34:04;;;;;;;28.50;21.97;;;3.60;99.90;;;;;;5034310;28;20164;-69
2023/02/14 08:36:29;;;;;;;33.20;22.70;;;3.70;99.90;;;;;;5033859;28;20225;-69
2023/02/14 08:38:56;;;;;;;29.33;22.17;;;3.80;99.90;;;;;;5033692;28;20426;-68
2023/02/14 08:41:22;;;;;;;31.53;22.50;;;3.80;99.90;;;;;;5033810;28;20160;-68
2023/02/14 08:43:49;;;;;;;32.77;23.77;;;4.00;99.90;;;;;;5033794;28;20845;-68
2023/02/14 08:46:15;;;;;;;30.77;22.10;;;4.00;99.90;;;;;;5033094;28;20164;-69
2023/02/14 08:48:42;;;;;;;32.27;24.00;;;4.10;99.90;;;;;;5033214;28;20437;-70
2023/02/14 08:51:10;;;;;;;32.27;23.13;;;4.20;99.90;;;;;;5033220;28;20765;-70
2023/02/14 08:53:37;;;;;;;33.17;23.90;;;4.00;99.90;;;;;;5033227;28;20495;-69
2023/02/14 08:56:04;;;;;;;32.63;25.33;;;3.90;99.90;;;;;;5032105;28;20954;-69
2023/02/14 08:58:30;;;;;;;34.80;24.17;;;3.90;99.90;;;;;;5030136;28;20804;-69
2023/02/14 09:00:56;;;;;;;28.80;23.20;;;4.10;99.90;;;;;;5013470;28;20502;-69
2023/02/14 09:03:22;;;;;;;35.80;24.77;;;4.00;99.90;;;;;;5013733;28;21036;-69
2023/02/14 09:05:47;;;;;;;28.67;22.43;;;3.80;99.90;;;;;;5013595;28;20237;-69
2023/02/14 09:08:13;;;;;;;31.40;23.73;;;3.70;99.90;;;;;;5013296;28;20653;-69
2023/02/14 09:10:38;;;;;;;31.40;24.60;;;3.90;99.90;;;;;;5013293;28;20557;-70
2023/02/14 09:13:04;;;;;;;33.33;24.40;;;4.20;99.90;;;;;;5013221;28;20159;-70
2023/02/14 09:15:29;;;;;;;30.80;23.73;;;4.50;99.90;;;;;;5012772;28;20179;-69
2023/02/14 09:17:55;;;;;;;32.60;24.63;;;4.50;99.90;;;;;;5011879;28;20172;-69
2023/02/14 09:20:21;;;;;;;29.20;23.00;;;4.60;99.90;;;;;;5012876;28;20191;-70
2023/02/14 09:22:46;;;;;;;32.37;23.80;;;4.60;99.90;;;;;;5012794;28;20227;-70
2023/02/14 09:25:12;;;;;;;30.53;23.70;;;4.60;99.90;;;;;;5011455;28;20569;-70
2023/02/14 09:27:38;;;;;;;32.40;24.53;;;4.70;99.90;;;;;;5012748;28;20196;-69
2023/02/14 09:30:08;;;;;;;32.10;23.30;;;4.70;99.90;;;;;;5024223;28;20515;-70
2023/02/14 09:32:34;;;;;;;29.90;23.53;;;4.80;99.90;;;;;;5032769;28;20152;-70
2023/02/14 09:37:44;;;;;;;35.03;25.70;;;5.00;99.90;;;;;;5032711;28;20205;-69
2023/02/14 09:40:13;;;;;;;29.80;22.37;;;5.00;99.90;;;;;;5032156;28;20430;-69
2023/02/14 09:42:47;;;;;;;31.93;23.43;;;5.10;99.90;;;;;;5032120;28;20168;-70
2023/02/14 09:45:19;;;;;;;28.00;22.53;;;5.20;99.90;;;;;;5015302;28;20403;-70
2023/02/14 09:48:30;;;;;;;34.43;25.40;;;5.50;99.90;;;;;;5011394;28;20482;-70
2023/02/14 09:51:04;;;;;;;29.40;22.30;;;5.80;99.90;;;;;;5008088;28;20502;-70
2023/02/14 09:53:39;;;;;;;24.93;20.93;;;5.90;99.90;;;;;;5012931;28;20419;-70
2023/02/14 09:56:26;;;;;;;29.37;22.20;;;5.70;99.90;;;;;;5012931;28;20470;-69
2023/02/14 09:59:16;;;;;;;26.23;20.40;;;5.80;99.90;;;;;;5014475;28;20510;-70
2023/02/14 10:01:48;;;;;;;29.43;23.40;;;5.60;99.90;;;;;;5032323;28;20958;-70
2023/02/14 10:04:26;;;;;;;28.70;20.83;;;5.70;99.90;;;;;;5032539;28;20818;-70
2023/02/14 10:07:13;;;;;;;28.50;22.73;;;5.70;99.90;;;;;;5032132;28;20920;-70
2023/02/14 10:09:47;;;;;;;29.97;22.13;;;5.90;99.90;;;;;;5025571;28;20558;-70
2023/02/14 10:12:33;;;;;;;28.37;22.57;;;6.10;99.90;;;;;;5032382;28;20401;-70
2023/02/14 10:15:03;;;;;;;29.40;23.67;;;5.80;99.90;;;;;;5031650;28;20403;-70
2023/02/14 10:17:39;;;;;;;32.80;23.70;;;5.60;99.90;;;;;;5030639;28;20561;-69
2023/02/14 10:20:22;;;;;;;33.27;22.73;;;5.70;99.90;;;;;;5032323;28;20429;-69
2023/02/14 10:23:15;;;;;;;32.27;23.30;;;5.70;99.90;;;;;;5032815;28;20391;-70
2023/02/14 10:25:50;;;;;;;27.43;21.50;;;5.90;99.90;;;;;;5032486;28;20398;-70
2023/02/14 10:28:21;;;;;;;29.90;22.57;;;6.10;99.90;;;;;;5032303;28;20467;-70
2023/02/14 10:31:18;;;;;;;26.67;21.00;;;6.20;99.90;;;;;;5031441;28;20491;-70
2023/02/14 10:34:03;;;;;;;27.00;22.20;;;6.30;99.90;;;;;;5032508;28;20386;-70
2023/02/14 10:36:47;;;;;;;28.93;22.47;;;6.60;99.90;;;;;;5032275;28;20733;-70
2023/02/14 10:39:52;;;;;;;29.23;22.80;;;6.70;99.90;;;;;;5032047;28;20414;-70
2023/02/14 10:42:42;;;;;;;22.40;19.23;;;6.80;99.90;;;;;;4990060;28;20429;-69
2023/02/14 10:45:28;;;;;;;26.13;21.50;;;7.00;99.90;;;;;;5029458;28;20429;-69
2023/02/14 10:47:57;;;;;;;28.67;22.40;;;7.10;99.90;;;;;;5031952;28;20444;-69
2023/02/14 10:50:35;;;;;;;25.20;20.77;;;7.20;99.90;;;;;;5031794;28;20516;-69
2023/02/14 10:53:26;;;;;;;25.57;19.93;;;7.30;99.90;;;;;;5034468;28;20420;-69
2023/02/14 10:56:02;;;;;;;29.20;22.20;;;7.20;99.90;;;;;;5035724;28;20482;-69
2023/02/14 10:58:32;;;;;;;25.40;21.20;;;7.30;99.90;;;;;;5015738;28;20395;-71
2023/02/14 11:01:12;;;;;;;24.70;20.20;;;7.30;99.90;;;;;;5034494;28;20412;-69
2023/02/14 11:03:40;;;;;;;31.10;20.20;;;7.50;99.90;;;;;;5035477;28;20503;-69
2023/02/14 11:06:09;;;;;;;22.63;20.13;;;7.50;99.90;;;;;;5035295;28;20424;-69
2023/02/14 11:08:39;;;;;;;30.67;21.90;;;7.60;99.90;;;;;;5034827;28;20452;-69
2023/02/14 11:11:27;;;;;;;25.10;21.17;;;7.60;99.90;;;;;;5035221;28;20921;-69
2023/02/14 11:13:53;;;;;;;21.77;19.40;;;7.80;99.90;;;;;;5035386;28;20380;-69
2023/02/14 11:16:38;;;;;;;25.33;19.50;;;7.80;99.90;;;;;;5034743;28;20462;-68
2023/02/14 11:19:25;;;;;;;29.27;20.00;;;8.40;99.90;;;;;;5034906;28;20605;-69
2023/02/14 11:21:53;;;;;;;21.60;18.67;;;10.30;99.90;;;;;;5033832;28;20485;-69
2023/02/14 11:24:37;;;;;;;24.60;18.90;;;11.70;99.90;;;;;;5034900;28;20571;-69
2023/02/14 11:27:23;;;;;;;20.43;18.23;;;12.90;99.90;;;;;;5035078;28;20476;-69
2023/02/14 11:29:51;;;;;;;20.00;17.80;;;14.80;98.60;;;;;;5034361;28;20503;-69
2023/02/14 11:32:24;;;;;;;21.53;18.87;;;16.20;93.90;;;;;;5034940;28;20775;-69
2023/02/14 11:35:01;;;;;;;20.83;18.47;;;14.60;93.90;;;;;;5034771;28;20459;-69
2023/02/14 11:38:04;;;;;;;21.70;18.33;;;14.20;95.60;;;;;;5035021;28;20431;-69
2023/02/14 11:40:30;;;;;;;21.23;18.60;;;15.20;94.60;;;;;;5011755;28;20453;-69
2023/02/14 11:43:17;;;;;;;21.67;19.37;;;15.60;92.80;;;;;;5034669;28;20401;-69
2023/02/14 11:45:46;;;;;;;19.40;16.27;;;15.40;93.30;;;;;;5032771;28;20832;-69
2023/02/14 11:48:15;;;;;;;20.20;18.10;;;14.80;93.50;;;;;;5034699;28;20870;-69
2023/02/14 11:50:41;;;;;;;23.23;18.53;;;13.70;94.70;;;;;;5034385;28;20432;-70
2023/02/14 11:53:11;;;;;;;20.00;17.97;;;13.20;95.60;;;;;;5032998;28;20508;-69
2023/02/14 11:55:37;;;;;;;19.23;17.23;;;14.20;95.40;;;;;;5016172;28;20942;-69
2023/02/14 11:58:05;;;;;;;19.53;17.50;;;15.20;93.70;;;;;;5015220;28;20910;-69
2023/02/14 12:00:32;;;;;;;21.30;17.40;;;14.90;93.20;;;;;;5029887;28;20479;-69
2023/02/14 12:03:03;;;;;;;24.53;18.20;;;15.10;93.00;;;;;;5034108;28;20410;-70
2023/02/14 12:05:44;;;;;;;20.93;17.90;;;14.80;92.60;;;;;;5034512;28;20447;-70
2023/02/14 12:08:10;;;;;;;19.33;16.93;;;14.90;93.40;;;;;;5033676;28;20441;-69
2023/02/14 12:10:41;;;;;;;19.20;17.27;;;15.10;92.90;;;;;;5034167;28;20442;-69
2023/02/14 12:13:06;;;;;;;21.60;16.73;;;15.30;92.70;;;;;;5034064;28;20386;-70
2023/02/14 12:15:37;;;;;;;18.70;16.80;;;15.80;91.70;;;;;;5032969;28;20525;-69
2023/02/14 12:18:11;;;;;;;19.10;16.73;;;17.30;90.50;;;;;;5034424;28;20536;-70
2023/02/14 12:20:51;;;;;;;18.60;16.00;;;16.90;90.00;;;;;;5034045;28;20429;-69
2023/02/14 12:23:22;;;;;;;19.93;17.87;;;17.70;87.20;;;;;;5033738;28;20444;-69
2023/02/14 12:25:55;;;;;;;17.30;14.63;;;17.00;86.90;;;;;;5034913;28;20390;-69
2023/02/14 12:28:47;;;;;;;21.77;16.90;;;17.10;87.20;;;;;;5034706;28;20466;-69
2023/02/14 12:31:13;;;;;;;18.53;16.53;;;17.20;85.60;;;;;;5049361;22;20617;-70
2023/02/14 12:33:39;;;;;;;19.60;17.50;;;17.30;84.60;;;;;;5034261;28;20410;-69
2023/02/14 12:36:19;;;;;;;18.60;15.70;;;16.90;85.20;;;;;;5034206;28;20394;-72
2023/02/14 12:39:00;;;;;;;17.40;15.60;;;16.00;86.80;;;;;;5034309;28;20815;-71
2023/02/14 12:41:44;;;;;;;18.40;15.43;;;15.20;90.20;;;;;;5033818;28;20425;-71
2023/02/14 12:44:48;;;;;;;20.43;18.10;;;16.30;89.10;;;;;;5033499;28;20410;-71
2023/02/14 12:47:19;;;;;;;18.03;16.13;;;17.10;85.40;;;;;;5014216;28;20504;-70
2023/02/14 12:50:17;;;;;;;20.43;18.23;;;18.40;84.40;;;;;;5033743;28;20450;-71
2023/02/14 12:52:59;;;;;;;20.17;16.50;;;18.80;80.50;;;;;;5033328;28;20497;-71
2023/02/14 12:55:47;;;;;;;20.90;18.70;;;18.10;82.70;;;;;;5032550;28;20394;-71
2023/02/14 12:58:33;;;;;;;19.93;17.50;;;18.00;82.10;;;;;;5033428;28;20396;-71
2023/02/14 13:01:25;;;;;;;17.83;16.00;;;18.20;82.00;;;;;;5033083;28;20541;-71
2023/02/14 13:04:19;;;;;;;21.43;17.60;;;19.80;77.40;;;;;;5033714;28;20395;-70
2023/02/14 13:07:03;;;;;;;20.03;17.53;;;20.30;75.50;;;;;;5033827;28;20382;-70
2023/02/14 13:09:36;;;;;;;18.90;16.93;;;18.60;77.40;;;;;;5033498;28;20488;-71
2023/02/14 13:12:38;;;;;;;20.43;18.07;;;19.60;77.10;;;;;;5033755;28;20395;-70
2023/02/14 13:15:29;;;;;;;19.03;17.13;;;19.70;75.20;;;;;;5031213;28;20413;-70
2023/02/14 13:18:22;;;;;;;19.47;17.00;;;21.00;72.60;;;;;;5033046;28;20451;-70
2023/02/14 13:21:03;;;;;;;25.80;17.90;;;22.10;69.70;;;;;;5012178;28;20458;-71
2023/02/14 13:23:40;;;;;;;19.13;16.13;;;22.00;68.20;;;;;;5033085;28;20409;-71